PWSweather.com
Personal Weather Stations
Station Observations
IONTARIO88
Lincoln, ON L0R

Lincoln, ON L0R

Lat: 43.1763563, Lon: -79.4719525

Elevation: 297

Station Type: Davis Vantage Pro 2 Plus

http://www.beamsvillewx.ca

Latest ConditionsUpdated 9:50:02 AM EDT Tuesday, Sep 2, 2014
Currently Today's Max Today's Min Today's Average
Temperature 77.9°F25.5°C 77.9°F25.5°C 70.8°F21.6°C 72.2°F22.3°C
Dew Point 71.6°F22.0°C 71.9°F22.2°C 67.3°F19.6°C 68.9°F20.5°C
Winds 2.7 mph SSW4.3 kmh SSW 9.3 mph S15.0 kmh S - 4.2 mph 6.8 kmh
Wind Gusts 7.0 mph11.3 kmh 13.0 mph20.9 kmh - -
Humidity 81% 92% 81% 90%
Pressure 29.82 in1009.8 mb 29.82 in1009.8 mb 29.76 in1007.8 mb -
Hour Temp Dew Point Humidity Winds Wind Gusts Pressure Precip Precip Rate Daily Precip Total
09:50 AM 77.9°F25.5°C 71.6°F22.0°C 81% 2.7 mph SSW4.3 kmh SSW 7.0 mph11.3 kmh 29.82 in1009.8 mb 0.00 in0.0 mm 0.00 in/hr0.0 mm/hr 0.00 in0.0 mm
09:40 AM 77.1°F25.1°C 71.9°F22.2°C 84% 5.4 mph SSW8.7 kmh SSW 8.0 mph12.9 kmh 29.82 in1009.8 mb 0.00 in0.0 mm 0.00 in/hr0.0 mm/hr 0.00 in0.0 mm
09:30 AM 76.6°F24.8°C 71.8°F22.1°C 85% 4.3 mph WSW6.9 kmh WSW 9.0 mph14.5 kmh 29.82 in1009.8 mb 0.00 in0.0 mm 0.00 in/hr0.0 mm/hr 0.00 in0.0 mm
09:20 AM 76.1°F24.5°C 71.6°F22.0°C 86% 4.3 mph SSW6.9 kmh SSW 7.0 mph11.3 kmh 29.82 in1009.8 mb 0.00 in0.0 mm 0.00 in/hr0.0 mm/hr 0.00 in0.0 mm
09:10 AM 75.6°F24.2°C 71.5°F21.9°C 87% 5.8 mph SW9.3 kmh SW 12.0 mph19.3 kmh 29.82 in1009.8 mb 0.00 in0.0 mm 0.00 in/hr0.0 mm/hr 0.00 in0.0 mm
09:00 AM 74.7°F23.7°C 71.0°F21.7°C 88% 3.5 mph SSW5.6 kmh SSW 8.0 mph12.9 kmh 29.82 in1009.8 mb 0.00 in0.0 mm 0.00 in/hr0.0 mm/hr 0.00 in0.0 mm
08:50 AM 74.3°F23.5°C 70.8°F21.6°C 89% 4.1 mph SSW6.6 kmh SSW 6.0 mph9.7 kmh 29.81 in1009.5 mb 0.00 in0.0 mm 0.00 in/hr0.0 mm/hr 0.00 in0.0 mm
08:40 AM 73.7°F23.2°C 70.3°F21.3°C 89% 0.8 mph SW1.3 kmh SW 6.0 mph9.7 kmh 29.81 in1009.5 mb 0.00 in0.0 mm 0.00 in/hr0.0 mm/hr 0.00 in0.0 mm
08:30 AM 73.4°F23.0°C 70.0°F21.1°C 89% 0.7 mph SW1.1 kmh SW 5.0 mph8.0 kmh 29.81 in1009.5 mb 0.00 in0.0 mm 0.00 in/hr0.0 mm/hr 0.00 in0.0 mm
08:20 AM 73.3°F22.9°C 70.2°F21.2°C 90% 2.3 mph SW3.7 kmh SW 4.0 mph6.4 kmh 29.81 in1009.5 mb 0.00 in0.0 mm 0.00 in/hr0.0 mm/hr 0.00 in0.0 mm
08:10 AM 73.1°F22.8°C 70.0°F21.1°C 90% 4.2 mph SW6.8 kmh SW 8.0 mph12.9 kmh 29.81 in1009.5 mb 0.00 in0.0 mm 0.00 in/hr0.0 mm/hr 0.00 in0.0 mm
08:00 AM 72.9°F22.7°C 70.1°F21.2°C 91% 2.7 mph SW4.3 kmh SW 6.0 mph9.7 kmh 29.81 in1009.5 mb 0.00 in0.0 mm 0.00 in/hr0.0 mm/hr 0.00 in0.0 mm
07:50 AM 72.4°F22.4°C 69.7°F20.9°C 91% 3.1 mph SW5.0 kmh SW 5.0 mph8.0 kmh 29.81 in1009.5 mb 0.00 in0.0 mm 0.00 in/hr0.0 mm/hr 0.00 in0.0 mm
07:40 AM 72.1°F22.3°C 69.3°F20.7°C 91% 4.8 mph SW7.7 kmh SW 8.0 mph12.9 kmh 29.82 in1009.8 mb 0.00 in0.0 mm 0.00 in/hr0.0 mm/hr 0.00 in0.0 mm
07:30 AM 71.9°F22.2°C 69.1°F20.6°C 91% 5.0 mph SSW8.0 kmh SSW 7.0 mph11.3 kmh 29.82 in1009.8 mb 0.00 in0.0 mm 0.00 in/hr0.0 mm/hr 0.00 in0.0 mm
07:20 AM 71.8°F22.1°C 69.0°F20.6°C 91% 3.8 mph SSW6.1 kmh SSW 6.0 mph9.7 kmh 29.82 in1009.8 mb 0.00 in0.0 mm 0.00 in/hr0.0 mm/hr 0.00 in0.0 mm
07:10 AM 71.7°F22.1°C 69.0°F20.6°C 91% 3.4 mph SW5.5 kmh SW 4.0 mph6.4 kmh 29.82 in1009.8 mb 0.00 in0.0 mm 0.00 in/hr0.0 mm/hr 0.00 in0.0 mm
07:00 AM 71.6°F22.0°C 69.2°F20.7°C 92% 4.0 mph SW6.4 kmh SW 8.0 mph12.9 kmh 29.82 in1009.8 mb 0.00 in0.0 mm 0.00 in/hr0.0 mm/hr 0.00 in0.0 mm
06:50 AM 71.5°F21.9°C 69.1°F20.6°C 92% 4.2 mph SW6.8 kmh SW 6.0 mph9.7 kmh 29.82 in1009.8 mb 0.00 in0.0 mm 0.00 in/hr0.0 mm/hr 0.00 in0.0 mm
06:40 AM 71.5°F21.9°C 69.1°F20.6°C 92% 4.1 mph SW6.6 kmh SW 8.0 mph12.9 kmh 29.81 in1009.5 mb 0.00 in0.0 mm 0.00 in/hr0.0 mm/hr 0.00 in0.0 mm
06:30 AM 71.6°F22.0°C 69.1°F20.6°C 92% 1.9 mph SW3.1 kmh SW 6.0 mph9.7 kmh 29.81 in1009.5 mb 0.00 in0.0 mm 0.00 in/hr0.0 mm/hr 0.00 in0.0 mm
06:20 AM 71.6°F22.0°C 69.2°F20.7°C 92% 3.3 mph SSW5.3 kmh SSW 7.0 mph11.3 kmh 29.80 in1009.1 mb 0.00 in0.0 mm 0.00 in/hr0.0 mm/hr 0.00 in0.0 mm
06:10 AM 71.7°F22.1°C 68.9°F20.5°C 91% 2.4 mph SW3.9 kmh SW 7.0 mph11.3 kmh 29.80 in1009.1 mb 0.00 in0.0 mm 0.00 in/hr0.0 mm/hr 0.00 in0.0 mm
06:00 AM 71.8°F22.1°C 69.0°F20.6°C 91% 1.3 mph SSW2.1 kmh SSW 4.0 mph6.4 kmh 29.80 in1009.1 mb 0.00 in0.0 mm 0.00 in/hr0.0 mm/hr 0.00 in0.0 mm
05:50 AM 71.8°F22.1°C 69.0°F20.6°C 91% 3.9 mph WSW6.3 kmh WSW 8.0 mph12.9 kmh 29.80 in1009.1 mb 0.00 in0.0 mm 0.00 in/hr0.0 mm/hr 0.00 in0.0 mm
05:40 AM 71.7°F22.1°C 69.3°F20.7°C 92% 5.2 mph SSW8.4 kmh SSW 8.0 mph12.9 kmh 29.80 in1009.1 mb 0.00 in0.0 mm 0.00 in/hr0.0 mm/hr 0.00 in0.0 mm
05:30 AM 71.7°F22.1°C 69.3°F20.7°C 92% 1.3 mph SW2.1 kmh SW 7.0 mph11.3 kmh 29.80 in1009.1 mb 0.00 in0.0 mm 0.00 in/hr0.0 mm/hr 0.00 in0.0 mm
05:20 AM 71.6°F22.0°C 69.1°F20.6°C 92% 2.2 mph SW3.5 kmh SW 5.0 mph8.0 kmh 29.79 in1008.8 mb 0.00 in0.0 mm 0.00 in/hr0.0 mm/hr 0.00 in0.0 mm
05:10 AM 71.5°F21.9°C 68.7°F20.4°C 91% 0.9 mph SW1.4 kmh SW 7.0 mph11.3 kmh 29.78 in1008.5 mb 0.00 in0.0 mm 0.00 in/hr0.0 mm/hr 0.00 in0.0 mm
05:00 AM 71.6°F22.0°C 68.8°F20.4°C 91% 4.0 mph SSW6.4 kmh SSW 11.0 mph17.7 kmh 29.78 in1008.5 mb 0.00 in0.0 mm 0.00 in/hr0.0 mm/hr 0.00 in0.0 mm
04:50 AM 71.6°F22.0°C 68.8°F20.4°C 91% 2.8 mph SW4.5 kmh SW 7.0 mph11.3 kmh 29.78 in1008.5 mb 0.00 in0.0 mm 0.00 in/hr0.0 mm/hr 0.00 in0.0 mm
04:40 AM 71.6°F22.0°C 68.8°F20.4°C 91% 3.7 mph SW6.0 kmh SW 6.0 mph9.7 kmh 29.78 in1008.5 mb 0.00 in0.0 mm 0.00 in/hr0.0 mm/hr 0.00 in0.0 mm
04:30 AM 71.7°F22.1°C 68.9°F20.5°C 91% 2.6 mph SSW4.2 kmh SSW 7.0 mph11.3 kmh 29.78 in1008.5 mb 0.00 in0.0 mm 0.00 in/hr0.0 mm/hr 0.00 in0.0 mm
04:20 AM 71.6°F22.0°C 68.8°F20.4°C 91% 5.1 mph SW8.2 kmh SW 9.0 mph14.5 kmh 29.78 in1008.5 mb 0.00 in0.0 mm 0.00 in/hr0.0 mm/hr 0.00 in0.0 mm
04:10 AM 71.6°F22.0°C 68.8°F20.4°C 91% 3.1 mph SW5.0 kmh SW 9.0 mph14.5 kmh 29.78 in1008.5 mb 0.00 in0.0 mm 0.00 in/hr0.0 mm/hr 0.00 in0.0 mm
04:00 AM 71.6°F22.0°C 68.8°F20.4°C 91% 5.7 mph SW9.2 kmh SW 11.0 mph17.7 kmh 29.78 in1008.5 mb 0.00 in0.0 mm 0.00 in/hr0.0 mm/hr 0.00 in0.0 mm
03:50 AM 71.5°F21.9°C 68.7°F20.4°C 91% 4.0 mph SSW6.4 kmh SSW 7.0 mph11.3 kmh 29.78 in1008.5 mb 0.00 in0.0 mm 0.00 in/hr0.0 mm/hr 0.00 in0.0 mm
03:40 AM 71.2°F21.8°C 68.4°F20.2°C 91% 5.9 mph SSW9.5 kmh SSW 10.0 mph16.1 kmh 29.78 in1008.5 mb 0.00 in0.0 mm 0.00 in/hr0.0 mm/hr 0.00 in0.0 mm
03:30 AM 71.0°F21.7°C 68.2°F20.1°C 91% 4.7 mph WSW7.6 kmh WSW 8.0 mph12.9 kmh 29.78 in1008.5 mb 0.00 in0.0 mm 0.00 in/hr0.0 mm/hr 0.00 in0.0 mm
03:20 AM 70.9°F21.6°C 68.1°F20.1°C 91% 5.4 mph SSW8.7 kmh SSW 8.0 mph12.9 kmh 29.78 in1008.5 mb 0.00 in0.0 mm 0.00 in/hr0.0 mm/hr 0.00 in0.0 mm
03:10 AM 70.8°F21.6°C 67.7°F19.8°C 90% 5.0 mph SSW8.0 kmh SSW 8.0 mph12.9 kmh 29.78 in1008.5 mb 0.00 in0.0 mm 0.00 in/hr0.0 mm/hr 0.00 in0.0 mm
03:00 AM 70.8°F21.6°C 67.7°F19.8°C 90% 5.9 mph SSW9.5 kmh SSW 11.0 mph17.7 kmh 29.78 in1008.5 mb 0.00 in0.0 mm 0.00 in/hr0.0 mm/hr 0.00 in0.0 mm
02:50 AM 70.9°F21.6°C 67.8°F19.9°C 90% 4.8 mph SW7.7 kmh SW 8.0 mph12.9 kmh 29.78 in1008.5 mb 0.00 in0.0 mm 0.00 in/hr0.0 mm/hr 0.00 in0.0 mm
02:40 AM 71.0°F21.7°C 67.9°F19.9°C 90% 6.2 mph WSW10.0 kmh WSW 9.0 mph14.5 kmh 29.78 in1008.5 mb 0.00 in0.0 mm 0.00 in/hr0.0 mm/hr 0.00 in0.0 mm
02:30 AM 71.1°F21.7°C 67.7°F19.8°C 89% 5.8 mph SSW9.3 kmh SSW 12.0 mph19.3 kmh 29.78 in1008.5 mb 0.00 in0.0 mm 0.00 in/hr0.0 mm/hr 0.00 in0.0 mm
02:20 AM 71.2°F21.8°C 67.8°F19.9°C 89% 3.9 mph SSW6.3 kmh SSW 8.0 mph12.9 kmh 29.78 in1008.5 mb 0.00 in0.0 mm 0.00 in/hr0.0 mm/hr 0.00 in0.0 mm
02:10 AM 71.3°F21.8°C 67.9°F19.9°C 89% 7.2 mph SW11.6 kmh SW 11.0 mph17.7 kmh 29.78 in1008.5 mb 0.00 in0.0 mm 0.00 in/hr0.0 mm/hr 0.00 in0.0 mm
02:00 AM 71.4°F21.9°C 68.0°F20.0°C 89% 4.9 mph SW7.9 kmh SW 7.0 mph11.3 kmh 29.78 in1008.5 mb 0.00 in0.0 mm 0.00 in/hr0.0 mm/hr 0.00 in0.0 mm
01:50 AM 71.7°F22.1°C 68.0°F20.0°C 88% 3.6 mph SW5.8 kmh SW 7.0 mph11.3 kmh 29.78 in1008.5 mb 0.00 in0.0 mm 0.00 in/hr0.0 mm/hr 0.00 in0.0 mm
01:40 AM 71.9°F22.2°C 68.2°F20.1°C 88% 5.3 mph SSW8.5 kmh SSW 7.0 mph11.3 kmh 29.78 in1008.5 mb 0.00 in0.0 mm 0.00 in/hr0.0 mm/hr 0.00 in0.0 mm
01:30 AM 71.8°F22.1°C 68.1°F20.1°C 88% 6.1 mph WSW9.8 kmh WSW 7.0 mph11.3 kmh 29.78 in1008.5 mb 0.00 in0.0 mm 0.00 in/hr0.0 mm/hr 0.00 in0.0 mm
01:20 AM 71.6°F22.0°C 67.9°F19.9°C 88% 6.4 mph SW10.3 kmh SW 11.0 mph17.7 kmh 29.78 in1008.5 mb 0.00 in0.0 mm 0.00 in/hr0.0 mm/hr 0.00 in0.0 mm
01:10 AM 71.4°F21.9°C 67.7°F19.8°C 88% 4.5 mph SW7.2 kmh SW 9.0 mph14.5 kmh 29.78 in1008.5 mb 0.00 in0.0 mm 0.00 in/hr0.0 mm/hr 0.00 in0.0 mm
01:00 AM 71.3°F21.8°C 67.6°F19.8°C 88% 7.0 mph WSW11.3 kmh WSW 11.0 mph17.7 kmh 29.78 in1008.5 mb 0.00 in0.0 mm 0.00 in/hr0.0 mm/hr 0.00 in0.0 mm
12:50 AM 71.1°F21.7°C 67.4°F19.7°C 88% 4.7 mph SSW7.6 kmh SSW 8.0 mph12.9 kmh 29.77 in1008.1 mb 0.00 in0.0 mm 0.00 in/hr0.0 mm/hr 0.00 in0.0 mm
12:40 AM 71.0°F21.7°C 67.3°F19.6°C 88% 5.9 mph SSW9.5 kmh SSW 8.0 mph12.9 kmh 29.77 in1008.1 mb 0.00 in0.0 mm 0.00 in/hr0.0 mm/hr 0.00 in0.0 mm
12:30 AM 71.0°F21.7°C 67.6°F19.8°C 89% 5.0 mph SW8.0 kmh SW 7.0 mph11.3 kmh 29.77 in1008.1 mb 0.00 in0.0 mm 0.00 in/hr0.0 mm/hr 0.00 in0.0 mm
12:20 AM 71.1°F21.7°C 67.4°F19.7°C 88% 5.6 mph S9.0 kmh S 12.0 mph19.3 kmh 29.78 in1008.5 mb 0.00 in0.0 mm 0.00 in/hr0.0 mm/hr 0.00 in0.0 mm
12:10 AM 71.5°F21.9°C 67.7°F19.8°C 88% 9.3 mph S15.0 kmh S 12.0 mph19.3 kmh 29.76 in1007.8 mb 0.00 in0.0 mm 0.00 in/hr0.0 mm/hr 0.00 in0.0 mm
12:00 AM 72.0°F22.2°C 68.2°F20.1°C 88% 4.4 mph W7.1 kmh W 13.0 mph20.9 kmh 29.76 in1007.8 mb 0.00 in0.0 mm 0.00 in/hr0.0 mm/hr 0.00 in0.0 mm